createdAt,value
2019-02-25T00:00:18.549Z,21.97
2019-02-25T00:02:47.111Z,20.70
2019-02-25T00:05:15.635Z,22.10
2019-02-25T00:07:44.242Z,23.23
2019-02-25T00:10:12.868Z,21.63
2019-02-25T00:12:41.416Z,20.17
2019-02-25T00:15:10.892Z,21.40
2019-02-25T00:17:40.531Z,20.73
2019-02-25T00:20:12.681Z,21.70
2019-02-25T00:22:41.245Z,22.10
2019-02-25T00:25:13.354Z,21.07
2019-02-25T00:27:41.966Z,20.67
2019-02-25T00:30:13.599Z,21.67
2019-02-25T00:32:42.180Z,20.43
2019-02-25T00:35:10.783Z,20.33
2019-02-25T00:37:39.347Z,20.90
2019-02-25T00:40:10.032Z,18.47
2019-02-25T00:42:38.603Z,20.13
2019-02-25T00:45:15.233Z,21.00
2019-02-25T00:47:43.882Z,20.10
2019-02-25T00:50:17.420Z,22.50
2019-02-25T00:52:45.994Z,22.97
2019-02-25T00:55:15.754Z,23.37
2019-02-25T00:57:44.316Z,22.83
2019-02-25T01:00:20.296Z,22.43
2019-02-25T01:02:49.256Z,20.90
2019-02-25T01:05:18.530Z,22.47
2019-02-25T01:07:47.152Z,21.87
2019-02-25T01:10:17.865Z,22.80
2019-02-25T01:12:46.857Z,21.50
2019-02-25T01:15:16.414Z,21.33
2019-02-25T01:17:45.131Z,22.00
2019-02-25T01:20:17.384Z,21.63
2019-02-25T01:22:46.053Z,22.53
2019-02-25T01:25:18.302Z,21.17
2019-02-25T01:27:46.861Z,21.20
2019-02-25T01:30:20.165Z,21.00
2019-02-25T01:32:48.734Z,21.13
2019-02-25T01:35:17.341Z,21.90
2019-02-25T01:37:45.921Z,21.27
2019-02-25T01:40:15.153Z,20.60
2019-02-25T01:42:43.751Z,20.90
2019-02-25T01:45:17.525Z,19.10
2019-02-25T01:47:46.340Z,19.73
2019-02-25T01:50:14.828Z,20.40
2019-02-25T01:52:43.397Z,19.60
2019-02-25T01:55:15.417Z,19.93
2019-02-25T01:57:44.077Z,18.50
2019-02-25T02:00:19.273Z,21.30
2019-02-25T02:02:48.368Z,19.37
2019-02-25T02:05:17.033Z,20.23
2019-02-25T02:07:45.757Z,20.10
2019-02-25T02:10:18.219Z,20.70
2019-02-25T02:12:46.942Z,19.63
2019-02-25T02:15:18.186Z,19.47
2019-02-25T02:17:46.901Z,20.07
2019-02-25T02:20:17.243Z,20.50
2019-02-25T02:22:46.378Z,20.40
2019-02-25T02:25:14.957Z,20.17
2019-02-25T02:27:43.644Z,21.07
2019-02-25T02:30:20.071Z,20.57
2019-02-25T02:32:49.029Z,21.23
2019-02-25T02:35:17.601Z,19.30
2019-02-25T02:37:46.150Z,20.90
2019-02-25T02:40:15.100Z,20.97
2019-02-25T02:43:00.265Z,21.47
2019-02-25T02:45:48.685Z,22.40
2019-02-25T02:48:26.269Z,21.77
2019-02-25T02:50:54.893Z,21.50
2019-02-25T02:53:23.393Z,22.60
2019-02-25T02:55:51.976Z,20.03
2019-02-25T02:58:20.496Z,21.40
2019-02-25T03:00:49.131Z,20.60
2019-02-25T03:03:17.636Z,19.67
2019-02-25T03:05:46.205Z,20.60
2019-02-25T03:08:14.719Z,19.60
2019-02-25T03:10:43.310Z,20.87
2019-02-25T03:13:11.825Z,21.40
2019-02-25T03:15:40.417Z,19.87
2019-02-25T03:18:08.942Z,19.00
2019-02-25T03:20:37.539Z,19.10
2019-02-25T03:23:06.053Z,18.60
2019-02-25T03:25:34.726Z,19.23
2019-02-25T03:28:03.257Z,20.43
2019-02-25T03:30:31.847Z,16.80
2019-02-25T03:33:00.487Z,18.67
2019-02-25T03:35:29.173Z,19.60
2019-02-25T03:37:57.715Z,18.83
2019-02-25T03:40:26.284Z,18.10
2019-02-25T03:42:54.809Z,18.90
2019-02-25T03:45:23.388Z,16.80
2019-02-25T03:47:51.941Z,18.93
2019-02-25T03:50:20.540Z,19.37
2019-02-25T03:52:49.056Z,19.53
2019-02-25T03:55:21.591Z,18.57
2019-02-25T03:57:50.261Z,17.63
2019-02-25T04:00:25.742Z,17.60
2019-02-25T04:02:54.330Z,18.50
2019-02-25T04:05:22.849Z,17.90
2019-02-25T04:07:51.634Z,19.50
2019-02-25T04:10:20.182Z,16.83
2019-02-25T04:12:48.774Z,17.80
2019-02-25T04:15:23.242Z,19.17
2019-02-25T04:17:51.910Z,16.90
2019-02-25T04:20:20.496Z,17.60
2019-02-25T04:22:49.097Z,16.83
2019-02-25T04:25:17.628Z,17.20
2019-02-25T04:27:46.264Z,17.30
2019-02-25T04:30:16.359Z,17.40
2019-02-25T04:32:44.982Z,17.50
2019-02-25T04:35:14.192Z,16.97
2019-02-25T04:37:42.764Z,16.80
2019-02-25T04:40:14.995Z,16.73
2019-02-25T04:42:43.569Z,16.50
2019-02-25T04:45:20.525Z,16.17
2019-02-25T04:47:49.092Z,16.43
2019-02-25T04:50:17.627Z,17.60
2019-02-25T04:52:46.192Z,16.90
2019-02-25T04:55:16.280Z,18.13
2019-02-25T04:57:44.883Z,18.10
2019-02-25T05:00:18.596Z,17.03
2019-02-25T05:02:47.580Z,18.03
2019-02-25T05:05:16.136Z,18.67
2019-02-25T05:07:44.712Z,17.17
2019-02-25T05:10:14.888Z,16.93
2019-02-25T05:12:47.703Z,19.07
2019-02-25T05:15:17.930Z,19.63
2019-02-25T05:17:51.987Z,17.97
2019-02-25T05:20:20.582Z,18.20
2019-02-25T05:22:49.122Z,18.10
2019-02-25T05:25:17.748Z,19.23
2019-02-25T05:27:46.360Z,18.73
2019-02-25T05:30:16.940Z,18.60
2019-02-25T05:32:45.522Z,17.97
2019-02-25T05:35:14.428Z,17.10
2019-02-25T05:37:43.086Z,17.47
2019-02-25T05:40:19.622Z,18.30
2019-02-25T05:42:48.177Z,16.73
2019-02-25T05:45:17.167Z,17.23
2019-02-25T05:47:45.695Z,18.03
2019-02-25T05:50:16.044Z,16.67
2019-02-25T05:52:44.647Z,16.10
2019-02-25T05:55:14.645Z,17.53
2019-02-25T05:57:43.194Z,17.67
2019-02-25T06:00:24.319Z,17.30
2019-02-25T06:02:52.967Z,16.40
2019-02-25T06:05:21.637Z,15.73
2019-02-25T06:07:50.243Z,16.70
2019-02-25T06:10:18.845Z,15.87
2019-02-25T06:12:47.523Z,16.53
2019-02-25T06:15:17.605Z,17.27
2019-02-25T06:17:46.521Z,15.43
2019-02-25T06:20:16.010Z,14.80
2019-02-25T06:22:44.651Z,15.03
2019-02-25T06:25:14.462Z,15.10
2019-02-25T06:27:43.074Z,15.03
2019-02-25T06:30:19.789Z,16.13
2019-02-25T06:32:48.477Z,14.73
2019-02-25T06:35:17.100Z,14.50
2019-02-25T06:37:45.731Z,14.80
2019-02-25T06:40:20.957Z,15.50
2019-02-25T06:42:49.551Z,14.20
2019-02-25T06:45:26.476Z,15.00
2019-02-25T06:47:55.070Z,14.57
2019-02-25T06:50:23.638Z,15.13
2019-02-25T06:52:52.377Z,13.53
2019-02-25T06:55:21.914Z,14.70
2019-02-25T06:57:50.489Z,15.87
2019-02-25T07:00:22.908Z,15.83
2019-02-25T07:02:51.547Z,15.20
2019-02-25T07:05:33.721Z,15.00
2019-02-25T07:08:12.970Z,16.57
2019-02-25T07:10:47.612Z,15.77
2019-02-25T07:13:32.850Z,14.43
2019-02-25T07:16:03.111Z,15.47
2019-02-25T07:18:49.478Z,16.17
2019-02-25T07:21:37.790Z,16.83
2019-02-25T07:24:08.007Z,17.27
2019-02-25T07:26:53.340Z,16.90
2019-02-25T07:29:39.936Z,15.67
2019-02-25T07:32:19.280Z,16.93
2019-02-25T07:34:49.542Z,15.87
2019-02-25T07:37:19.908Z,18.17
2019-02-25T07:39:52.973Z,17.30
2019-02-25T07:42:26.840Z,17.67
2019-02-25T07:44:57.421Z,17.70
2019-02-25T07:47:42.391Z,16.17
2019-02-25T07:50:30.732Z,17.10
2019-02-25T07:53:13.199Z,16.57
2019-02-25T07:55:46.586Z,16.60
2019-02-25T07:58:26.163Z,16.73
2019-02-25T08:00:56.587Z,14.73
2019-02-25T08:03:26.768Z,15.80
2019-02-25T08:05:59.726Z,15.00
2019-02-25T08:08:33.408Z,15.63
2019-02-25T08:11:09.819Z,13.43
2019-02-25T08:13:40.165Z,14.27
2019-02-25T08:16:15.831Z,15.03
2019-02-25T08:19:04.148Z,13.20
2019-02-25T08:21:50.262Z,15.47
2019-02-25T08:24:32.298Z,14.33
2019-02-25T08:27:14.406Z,14.37
2019-02-25T08:29:59.922Z,15.30
2019-02-25T08:32:33.514Z,15.47
2019-02-25T08:35:13.038Z,14.53
2019-02-25T08:37:52.299Z,15.00
2019-02-25T08:40:34.261Z,15.67
2019-02-25T08:43:18.503Z,15.03
2019-02-25T08:45:51.755Z,16.70
2019-02-25T08:48:22.052Z,14.50
2019-02-25T08:50:50.648Z,17.13
2019-02-25T08:53:19.347Z,16.67
2019-02-25T08:55:47.889Z,15.03
2019-02-25T08:58:16.509Z,17.00
2019-02-25T09:00:45.071Z,15.40
2019-02-25T09:03:13.754Z,16.37
2019-02-25T09:05:42.385Z,16.40
2019-02-25T09:08:11.041Z,16.23
2019-02-25T09:10:39.547Z,16.40
2019-02-25T09:13:08.108Z,16.77
2019-02-25T09:15:36.668Z,16.07
2019-02-25T09:18:04.231Z,16.53
2019-02-25T09:20:32.815Z,16.57
2019-02-25T09:23:01.421Z,17.93
2019-02-25T09:25:30.660Z,17.77
2019-02-25T09:27:59.649Z,17.83
2019-02-25T09:30:29.295Z,18.40
2019-02-25T09:32:57.935Z,16.97
2019-02-25T09:35:26.487Z,17.40
2019-02-25T09:37:55.192Z,18.73
2019-02-25T09:40:23.845Z,18.70
2019-02-25T09:42:52.507Z,17.80
2019-02-25T09:45:21.153Z,20.63
2019-02-25T09:47:49.777Z,21.10
2019-02-25T09:50:22.661Z,21.03
2019-02-25T09:52:51.366Z,20.00
2019-02-25T09:55:19.961Z,19.70
2019-02-25T09:57:49.291Z,18.97
2019-02-25T10:00:22.392Z,21.87
2019-02-25T10:02:51.294Z,20.67
2019-02-25T10:05:19.987Z,22.67
2019-02-25T10:07:48.672Z,20.87
2019-02-25T10:10:18.531Z,20.40
2019-02-25T10:12:47.183Z,23.43
2019-02-25T10:15:21.390Z,21.77
2019-02-25T10:17:50.048Z,20.87
2019-02-25T10:20:18.575Z,22.63
2019-02-25T10:22:47.297Z,21.67
2019-02-25T10:25:15.874Z,23.07
2019-02-25T10:27:44.450Z,22.37
2019-02-25T10:30:21.000Z,24.33
2019-02-25T10:32:49.711Z,24.43
2019-02-25T10:35:21.304Z,23.63
2019-02-25T10:37:50.835Z,25.00
2019-02-25T10:40:24.055Z,25.30
2019-02-25T10:42:50.256Z,25.93
2019-02-25T10:45:22.846Z,25.03
2019-02-25T10:47:56.589Z,25.63
2019-02-25T10:50:22.163Z,24.37
2019-02-25T10:52:50.806Z,25.30
2019-02-25T10:55:37.839Z,27.30
2019-02-25T10:58:09.799Z,27.27
2019-02-25T11:00:39.498Z,28.27
2019-02-25T11:03:10.562Z,25.17
2019-02-25T11:05:39.101Z,26.90
2019-02-25T11:08:11.154Z,27.10
2019-02-25T11:10:41.346Z,27.30
2019-02-25T11:13:09.911Z,28.30
2019-02-25T11:15:41.716Z,28.00
2019-02-25T11:18:09.986Z,29.30
2019-02-25T11:20:39.038Z,27.23
2019-02-25T11:23:07.552Z,30.60
2019-02-25T11:25:36.261Z,27.10
2019-02-25T11:28:07.029Z,28.73
2019-02-25T11:30:35.528Z,28.77
2019-02-25T11:33:04.163Z,28.50
2019-02-25T11:35:34.445Z,29.10
2019-02-25T11:38:04.685Z,28.40
2019-02-25T11:40:35.492Z,28.77
2019-02-25T11:43:03.698Z,29.63
2019-02-25T11:45:32.990Z,30.50
2019-02-25T11:48:01.776Z,30.80
2019-02-25T11:50:30.508Z,27.90
2019-02-25T11:52:59.227Z,29.37
2019-02-25T11:55:27.931Z,29.33
2019-02-25T11:57:56.544Z,30.33
2019-02-25T12:00:29.996Z,30.47
2019-02-25T12:02:58.709Z,30.33
2019-02-25T12:05:27.645Z,30.93
2019-02-25T12:07:56.345Z,30.00
2019-02-25T12:10:24.888Z,30.60
2019-02-25T12:12:54.507Z,29.83
2019-02-25T12:15:23.637Z,28.97
2019-02-25T12:17:52.232Z,30.47
2019-02-25T12:20:20.842Z,31.30
2019-02-25T12:22:49.507Z,30.00
2019-02-25T12:25:25.364Z,29.43
2019-02-25T12:27:53.999Z,30.10
2019-02-25T12:30:27.909Z,30.57
2019-02-25T12:32:56.465Z,28.73
2019-02-25T12:35:25.043Z,29.10
2019-02-25T12:37:54.677Z,27.60
2019-02-25T12:40:23.247Z,28.10
2019-02-25T12:42:53.121Z,26.67
2019-02-25T12:45:21.728Z,28.73
2019-02-25T12:47:50.734Z,28.50
2019-02-25T12:50:20.273Z,27.90
2019-02-25T12:52:48.931Z,28.13
2019-02-25T12:55:18.641Z,26.07
2019-02-25T12:57:47.191Z,28.20
2019-02-25T13:00:17.809Z,27.40
2019-02-25T13:02:46.467Z,27.80
2019-02-25T13:05:20.621Z,26.50
2019-02-25T13:07:49.256Z,27.73
2019-02-25T13:10:18.749Z,27.77
2019-02-25T13:12:47.381Z,25.20
2019-02-25T13:15:17.333Z,25.10
2019-02-25T13:17:46.971Z,25.20
2019-02-25T13:20:16.128Z,23.37
2019-02-25T13:22:44.746Z,22.90
2019-02-25T13:25:15.725Z,24.37
2019-02-25T13:27:44.285Z,24.70
2019-02-25T13:30:18.191Z,23.47
2019-02-25T13:32:46.840Z,25.17
2019-02-25T13:35:16.530Z,25.43
2019-02-25T13:37:45.198Z,24.03
2019-02-25T13:40:15.195Z,22.53
2019-02-25T13:42:44.324Z,25.60
2019-02-25T13:45:17.722Z,23.07
2019-02-25T13:47:46.508Z,22.60
2019-02-25T13:50:16.326Z,22.50
2019-02-25T13:52:48.570Z,21.17
2019-02-25T13:55:23.208Z,21.97
2019-02-25T13:57:51.807Z,22.90
2019-02-25T14:00:28.076Z,23.80
2019-02-25T14:02:56.760Z,22.93
2019-02-25T14:05:25.527Z,21.77
2019-02-25T14:07:54.082Z,21.87
2019-02-25T14:10:22.793Z,21.47
2019-02-25T14:12:51.503Z,23.30
2019-02-25T14:15:21.862Z,21.67
2019-02-25T14:17:50.862Z,21.60
2019-02-25T14:20:20.842Z,20.97
2019-02-25T14:22:49.535Z,20.40
2019-02-25T14:25:27.029Z,20.33
2019-02-25T14:27:56.101Z,22.40
2019-02-25T14:30:26.052Z,20.30
2019-02-25T14:32:55.300Z,19.90
2019-02-25T14:35:31.999Z,21.03
2019-02-25T14:38:07.681Z,20.80
2019-02-25T14:40:39.367Z,21.50
2019-02-25T14:43:10.605Z,17.77
2019-02-25T14:45:41.513Z,21.17
2019-02-25T14:48:10.535Z,18.27
2019-02-25T14:50:39.033Z,19.03
2019-02-25T14:53:09.161Z,20.33
2019-02-25T14:55:38.107Z,20.07
2019-02-25T14:58:07.405Z,19.43
2019-02-25T15:00:38.138Z,19.80
2019-02-25T15:03:06.960Z,21.47
2019-02-25T15:05:36.564Z,20.37
2019-02-25T15:08:06.224Z,18.77
2019-02-25T15:10:36.229Z,20.07
2019-02-25T15:13:06.680Z,18.73
2019-02-25T15:15:37.060Z,19.13
2019-02-25T15:18:05.790Z,19.70
2019-02-25T15:20:35.156Z,20.30
2019-02-25T15:23:04.803Z,19.13
2019-02-25T15:25:35.845Z,18.73
2019-02-25T15:28:07.128Z,18.23
2019-02-25T15:30:34.321Z,20.30
2019-02-25T15:33:02.970Z,19.23
2019-02-25T15:35:34.544Z,20.33
2019-02-25T15:38:02.018Z,19.20
2019-02-25T15:40:32.863Z,19.53
2019-02-25T15:43:04.177Z,18.67
2019-02-25T15:45:38.327Z,19.73
2019-02-25T15:48:10.100Z,18.50
2019-02-25T15:50:38.950Z,20.27
2019-02-25T15:53:09.589Z,17.50
2019-02-25T15:55:39.343Z,18.23
2019-02-25T15:58:09.160Z,18.93
2019-02-25T16:00:39.370Z,19.43
2019-02-25T16:03:10.615Z,19.17
2019-02-25T16:05:39.055Z,19.60
2019-02-25T16:08:09.474Z,18.23
2019-02-25T16:10:38.300Z,17.13
2019-02-25T16:13:11.095Z,20.07
2019-02-25T16:15:38.128Z,17.10
2019-02-25T16:18:06.839Z,18.83
2019-02-25T16:20:35.726Z,17.80
2019-02-25T16:23:07.656Z,18.30
2019-02-25T16:25:35.923Z,18.13
2019-02-25T16:28:06.058Z,19.23
2019-02-25T16:30:35.323Z,17.77
2019-02-25T16:33:04.890Z,17.80
2019-02-25T16:35:35.210Z,17.43
2019-02-25T16:38:05.680Z,17.57
2019-02-25T16:40:36.179Z,17.83
2019-02-25T16:43:07.760Z,17.93
2019-02-25T16:45:37.901Z,19.23
2019-02-25T16:48:07.423Z,17.57
2019-02-25T16:50:36.775Z,17.47
2019-02-25T16:53:08.547Z,18.17
2019-02-25T16:55:36.601Z,17.07
2019-02-25T16:58:06.982Z,16.20
2019-02-25T17:00:37.242Z,16.83
2019-02-25T17:03:06.665Z,17.70
2019-02-25T17:05:37.950Z,16.57
2019-02-25T17:08:10.397Z,16.80
2019-02-25T17:10:39.930Z,17.90
2019-02-25T17:13:10.178Z,17.23
2019-02-25T17:15:38.829Z,16.63
2019-02-25T17:18:07.375Z,16.47
2019-02-25T17:20:35.979Z,16.03
2019-02-25T17:23:04.491Z,16.87
2019-02-25T17:25:34.013Z,16.70
2019-02-25T17:28:03.273Z,17.50
2019-02-25T17:30:31.876Z,17.90
2019-02-25T17:33:02.971Z,16.47
2019-02-25T17:35:31.920Z,15.90
2019-02-25T17:38:01.371Z,16.27
2019-02-25T17:40:31.052Z,17.23
2019-02-25T17:43:00.810Z,15.87
2019-02-25T17:45:32.489Z,18.33
2019-02-25T17:48:03.253Z,15.70
2019-02-25T17:50:34.261Z,19.67
2019-02-25T17:53:03.023Z,18.27
2019-02-25T17:55:34.466Z,18.30
2019-02-25T17:58:02.536Z,17.63
2019-02-25T18:00:41.804Z,18.00
2019-02-25T18:03:09.720Z,19.67
2019-02-25T18:05:40.564Z,19.77
2019-02-25T18:08:13.318Z,26.00
2019-02-25T18:10:43.115Z,23.33
2019-02-25T18:13:12.584Z,17.13
2019-02-25T18:15:41.513Z,18.43
2019-02-25T18:18:12.558Z,19.33
2019-02-25T18:20:41.080Z,19.00
2019-02-25T18:23:10.024Z,18.10
2019-02-25T18:25:40.142Z,18.83
2019-02-25T18:28:12.786Z,19.03
2019-02-25T18:30:42.539Z,18.97
2019-02-25T18:33:13.670Z,17.40
2019-02-25T18:35:45.713Z,18.40
2019-02-25T18:38:14.688Z,17.77
2019-02-25T18:40:46.156Z,17.67
2019-02-25T18:43:14.386Z,17.60
2019-02-25T18:45:44.759Z,18.23
2019-02-25T18:48:13.850Z,18.70
2019-02-25T18:50:45.011Z,18.43
2019-02-25T18:53:13.554Z,20.03
2019-02-25T18:55:42.141Z,21.47
2019-02-25T18:58:14.305Z,19.87
2019-02-25T19:00:45.372Z,20.20
2019-02-25T19:03:14.727Z,19.90
2019-02-25T19:05:43.958Z,17.67
2019-02-25T19:08:19.633Z,19.30
2019-02-25T19:10:48.594Z,20.07
2019-02-25T19:13:20.508Z,21.13
2019-02-25T19:15:50.758Z,19.43
2019-02-25T19:18:19.432Z,19.80
2019-02-25T19:20:48.308Z,20.23
2019-02-25T19:23:16.934Z,19.00
2019-02-25T19:25:45.692Z,19.43
2019-02-25T19:28:18.712Z,20.33
2019-02-25T19:30:45.159Z,20.57
2019-02-25T19:33:13.912Z,19.60
2019-02-25T19:35:42.849Z,19.83
2019-02-25T19:38:13.426Z,18.37
2019-02-25T19:40:43.219Z,18.87
2019-02-25T19:43:12.403Z,19.33
2019-02-25T19:45:43.085Z,20.23
2019-02-25T19:48:11.508Z,20.17
2019-02-25T19:50:50.714Z,19.93
2019-02-25T19:53:12.481Z,19.33
2019-02-25T19:55:43.426Z,19.37
2019-02-25T19:58:11.723Z,21.40
2019-02-25T20:00:40.316Z,20.90
2019-02-25T20:03:09.323Z,20.83
2019-02-25T20:05:41.190Z,21.27
2019-02-25T20:08:09.092Z,20.50
2019-02-25T20:10:37.771Z,19.40
2019-02-25T20:13:08.698Z,18.80
2019-02-25T20:15:41.697Z,21.20
2019-02-25T20:18:09.935Z,19.30
2019-02-25T20:20:43.476Z,20.67
2019-02-25T20:23:12.232Z,19.30
2019-02-25T20:25:44.462Z,20.83
2019-02-25T20:28:12.240Z,22.67
2019-02-25T20:30:42.937Z,22.23
2019-02-25T20:33:11.704Z,23.10
2019-02-25T20:35:40.444Z,21.97
2019-02-25T20:38:09.215Z,19.33
2019-02-25T20:40:38.064Z,21.23
2019-02-25T20:43:06.999Z,20.40
2019-02-25T20:45:35.994Z,21.43
2019-02-25T20:48:05.367Z,22.40
2019-02-25T20:50:34.387Z,22.70
2019-02-25T20:53:05.958Z,22.37
2019-02-25T20:55:34.619Z,21.93
2019-02-25T20:58:05.195Z,24.87
2019-02-25T21:00:36.937Z,23.50
2019-02-25T21:03:05.024Z,22.50
2019-02-25T21:05:33.746Z,24.50
2019-02-25T21:08:03.431Z,22.03
2019-02-25T21:10:35.363Z,21.47
2019-02-25T21:13:02.762Z,24.37
2019-02-25T21:15:33.486Z,22.60
2019-02-25T21:18:04.471Z,22.80
2019-02-25T21:20:32.273Z,25.27
2019-02-25T21:23:04.870Z,22.90
2019-02-25T21:25:35.705Z,27.73
2019-02-25T21:28:04.885Z,24.10
2019-02-25T21:30:37.143Z,22.23
2019-02-25T21:33:04.432Z,22.20
2019-02-25T21:35:35.404Z,25.90
2019-02-25T21:38:05.929Z,25.50
2019-02-25T21:40:34.600Z,24.77
2019-02-25T21:43:03.160Z,25.60
2019-02-25T21:45:32.501Z,27.27
2019-02-25T21:48:04.179Z,24.60
2019-02-25T21:50:33.998Z,25.37
2019-02-25T21:53:04.893Z,24.67
2019-02-25T21:55:34.778Z,25.80
2019-02-25T21:58:04.947Z,25.00
2019-02-25T22:00:35.742Z,25.33
2019-02-25T22:03:04.481Z,23.87
2019-02-25T22:05:34.360Z,22.33
2019-02-25T22:08:04.105Z,23.00
2019-02-25T22:10:36.322Z,23.37
2019-02-25T22:13:06.679Z,21.73
2019-02-25T22:15:35.745Z,23.67
2019-02-25T22:18:06.131Z,22.70
2019-02-25T22:20:37.659Z,23.10
2019-02-25T22:23:05.790Z,23.57
2019-02-25T22:25:35.765Z,20.60
2019-02-25T22:28:05.371Z,20.67
2019-02-25T22:30:34.855Z,21.00
2019-02-25T22:33:04.810Z,21.60
2019-02-25T22:35:37.388Z,20.50
2019-02-25T22:38:04.921Z,21.37
2019-02-25T22:40:34.901Z,23.53
2019-02-25T22:43:04.081Z,23.63
2019-02-25T22:45:33.538Z,21.27
2019-02-25T22:48:03.493Z,19.90
2019-02-25T22:50:33.892Z,21.53
2019-02-25T22:53:04.217Z,20.00
2019-02-25T22:55:36.689Z,19.37
2019-02-25T22:58:04.381Z,20.30
2019-02-25T23:00:44.615Z,22.53
2019-02-25T23:03:16.033Z,20.57
2019-02-25T23:05:45.976Z,19.70
2019-02-25T23:08:15.490Z,20.73
2019-02-25T23:10:46.905Z,18.93
2019-02-25T23:13:15.647Z,19.67
2019-02-25T23:15:46.451Z,18.83
2019-02-25T23:18:16.888Z,19.37
2019-02-25T23:20:45.392Z,19.43
2019-02-25T23:23:13.994Z,19.30
2019-02-25T23:25:42.556Z,21.73
2019-02-25T23:28:11.396Z,21.73
2019-02-25T23:30:40.028Z,23.13
2019-02-25T23:33:11.994Z,24.10
2019-02-25T23:35:42.729Z,22.73
2019-02-25T23:38:10.630Z,19.43
2019-02-25T23:40:40.269Z,20.10
2019-02-25T23:43:11.587Z,21.60
2019-02-25T23:45:40.466Z,19.47
2019-02-25T23:48:11.723Z,17.97
2019-02-25T23:50:40.721Z,19.80
2019-02-25T23:53:09.397Z,19.57
2019-02-25T23:55:37.952Z,21.27
2019-02-25T23:58:10.259Z,19.00
